createdAt,value
2022-09-21T00:00:40.069Z,990.52
2022-09-21T00:01:40.096Z,990.51
2022-09-21T00:02:40.048Z,990.53
2022-09-21T00:03:40.038Z,990.52
2022-09-21T00:04:40.021Z,990.55
2022-09-21T00:05:40.011Z,990.54
2022-09-21T00:06:39.994Z,990.56
2022-09-21T00:07:39.986Z,990.50
2022-09-21T00:08:39.984Z,990.50
2022-09-21T00:09:39.969Z,990.53
2022-09-21T00:10:39.958Z,990.54
2022-09-21T00:11:39.949Z,990.48
2022-09-21T00:12:39.936Z,990.49
2022-09-21T00:13:39.934Z,990.48
2022-09-21T00:14:39.914Z,990.46
2022-09-21T00:15:39.907Z,990.53
2022-09-21T00:16:39.940Z,990.49
2022-09-21T00:17:39.886Z,990.55
2022-09-21T00:18:39.886Z,990.56
2022-09-21T00:19:39.868Z,990.53
2022-09-21T00:20:39.857Z,990.56
2022-09-21T00:21:39.864Z,990.59
2022-09-21T00:22:39.840Z,990.60
2022-09-21T00:23:39.842Z,990.52
2022-09-21T00:24:39.861Z,990.52
2022-09-21T00:25:39.808Z,990.52
2022-09-21T00:26:39.797Z,990.52
2022-09-21T00:27:39.786Z,990.55
2022-09-21T00:28:39.795Z,990.59
2022-09-21T00:29:39.772Z,990.55
2022-09-21T00:30:39.760Z,990.50
2022-09-21T00:31:39.780Z,990.57
2022-09-21T00:32:39.740Z,990.55
2022-09-21T00:33:39.730Z,990.53
2022-09-21T00:34:39.727Z,990.54
2022-09-21T00:35:39.708Z,990.46
2022-09-21T00:36:39.690Z,990.53
2022-09-21T00:37:39.684Z,990.52
2022-09-21T00:38:39.707Z,990.53
2022-09-21T00:39:39.668Z,990.55
2022-09-21T00:40:39.827Z,990.49
2022-09-21T00:41:39.648Z,990.54
2022-09-21T00:42:39.635Z,990.47
2022-09-21T00:43:39.625Z,990.51
2022-09-21T00:44:39.625Z,990.55
2022-09-21T00:45:39.624Z,990.52
2022-09-21T00:46:39.599Z,990.52
2022-09-21T00:47:39.583Z,990.60
2022-09-21T00:48:39.593Z,990.56
2022-09-21T00:49:39.571Z,990.56
2022-09-21T00:50:39.553Z,990.59
2022-09-21T00:51:39.544Z,990.55
2022-09-21T00:52:39.539Z,990.56
2022-09-21T00:53:39.521Z,990.56
2022-09-21T00:54:39.523Z,990.57
2022-09-21T00:55:39.501Z,990.61
2022-09-21T00:56:39.545Z,990.60
2022-09-21T00:57:39.484Z,990.57
2022-09-21T00:58:39.472Z,990.55
2022-09-21T00:59:39.473Z,990.56
2022-09-21T01:00:39.480Z,990.58
2022-09-21T01:01:39.468Z,990.57
2022-09-21T01:02:39.433Z,990.60
2022-09-21T01:03:39.416Z,990.61
2022-09-21T01:04:39.421Z,990.54
2022-09-21T01:05:39.400Z,990.57
2022-09-21T01:06:39.387Z,990.59
2022-09-21T01:07:39.379Z,990.51
2022-09-21T01:08:39.363Z,990.60
2022-09-21T01:09:39.369Z,990.62
2022-09-21T01:10:39.347Z,990.66
2022-09-21T01:11:39.336Z,990.62
2022-09-21T01:12:39.330Z,990.62
2022-09-21T01:13:39.321Z,990.62
2022-09-21T01:14:39.323Z,990.61
2022-09-21T01:15:39.298Z,990.63
2022-09-21T01:16:39.326Z,990.60
2022-09-21T01:17:39.279Z,990.57
2022-09-21T01:18:39.273Z,990.63
2022-09-21T01:19:39.277Z,990.64
2022-09-21T01:20:39.254Z,990.61
2022-09-21T01:21:39.238Z,990.57
2022-09-21T01:22:39.228Z,990.64
2022-09-21T01:23:39.219Z,990.62
2022-09-21T01:24:39.219Z,990.67
2022-09-21T01:25:39.200Z,990.62
2022-09-21T01:26:39.189Z,990.61
2022-09-21T01:27:39.181Z,990.67
2022-09-21T01:28:39.168Z,990.59
2022-09-21T01:29:39.171Z,990.66
2022-09-21T01:30:39.152Z,990.69
2022-09-21T01:31:39.164Z,990.62
2022-09-21T01:32:40.130Z,990.65
2022-09-21T01:33:39.124Z,990.64
2022-09-21T01:34:39.118Z,990.65
2022-09-21T01:35:39.098Z,990.65
2022-09-21T01:36:39.087Z,990.70
2022-09-21T01:37:39.080Z,990.67
2022-09-21T01:38:39.070Z,990.69
2022-09-21T01:39:39.073Z,990.69
2022-09-21T01:40:39.100Z,990.69
2022-09-21T01:41:39.043Z,990.72
2022-09-21T01:42:39.033Z,990.67
2022-09-21T01:43:39.021Z,990.69
2022-09-21T01:44:39.021Z,990.73
2022-09-21T01:45:39.036Z,990.75
2022-09-21T01:46:38.990Z,990.71
2022-09-21T01:47:38.986Z,990.71
2022-09-21T01:48:38.972Z,990.73
2022-09-21T01:49:39.009Z,990.71
2022-09-21T01:50:38.956Z,990.75
2022-09-21T01:51:38.945Z,990.69
2022-09-21T01:52:38.932Z,990.73
2022-09-21T01:53:38.923Z,990.73
2022-09-21T01:54:38.925Z,990.64
2022-09-21T01:55:38.902Z,990.70
2022-09-21T01:56:38.896Z,990.62
2022-09-21T01:57:38.881Z,990.64
2022-09-21T01:58:38.871Z,990.66
2022-09-21T01:59:38.873Z,990.71
2022-09-21T02:00:38.880Z,990.70
2022-09-21T02:01:38.885Z,990.74
2022-09-21T02:02:38.832Z,990.75
2022-09-21T02:03:38.820Z,990.73
2022-09-21T02:04:38.823Z,990.76
2022-09-21T02:05:38.799Z,990.76
2022-09-21T02:06:38.790Z,990.77
2022-09-21T02:07:38.782Z,990.74
2022-09-21T02:08:38.769Z,990.78
2022-09-21T02:09:38.774Z,990.75
2022-09-21T02:10:38.747Z,990.73
2022-09-21T02:11:38.740Z,990.77
2022-09-21T02:12:38.731Z,990.84
2022-09-21T02:13:38.725Z,990.81
2022-09-21T02:14:38.712Z,990.83
2022-09-21T02:15:39.698Z,990.77
2022-09-21T02:16:38.685Z,990.80
2022-09-21T02:17:38.676Z,990.79
2022-09-21T02:18:38.669Z,990.79
2022-09-21T02:19:38.680Z,990.76
2022-09-21T02:20:38.668Z,990.80
2022-09-21T02:21:38.639Z,990.74
2022-09-21T02:22:38.629Z,990.77
2022-09-21T02:23:38.619Z,990.81
2022-09-21T02:24:38.621Z,990.82
2022-09-21T02:25:38.596Z,990.75
2022-09-21T02:26:38.591Z,990.79
2022-09-21T02:27:38.575Z,990.78
2022-09-21T02:28:38.564Z,990.71
2022-09-21T02:29:38.580Z,990.75
2022-09-21T02:30:38.546Z,990.77
2022-09-21T02:31:38.547Z,990.78
2022-09-21T02:32:38.531Z,990.77
2022-09-21T02:33:38.526Z,990.74
2022-09-21T02:34:38.508Z,990.76
2022-09-21T02:35:38.496Z,990.72
2022-09-21T02:37:10.387Z,990.72
2022-09-21T02:37:38.474Z,990.77
2022-09-21T02:38:38.476Z,990.76
2022-09-21T02:39:38.453Z,990.72
2022-09-21T02:40:38.508Z,990.72
2022-09-21T02:41:38.442Z,990.72
2022-09-21T02:42:38.433Z,990.72
2022-09-21T02:43:38.433Z,990.77
2022-09-21T02:44:38.412Z,990.71
2022-09-21T02:45:38.403Z,990.74
2022-09-21T02:46:38.447Z,990.80
2022-09-21T02:47:38.382Z,990.77
2022-09-21T02:48:38.388Z,990.71
2022-09-21T02:49:38.361Z,990.75
2022-09-21T02:50:38.349Z,990.73
2022-09-21T02:51:38.341Z,990.77
2022-09-21T02:52:38.328Z,990.74
2022-09-21T02:53:38.333Z,990.80
2022-09-21T02:54:38.312Z,990.70
2022-09-21T02:55:38.304Z,990.74
2022-09-21T02:56:38.294Z,990.77
2022-09-21T02:57:38.281Z,990.72
2022-09-21T02:58:38.286Z,990.70
2022-09-21T02:59:38.265Z,990.77
2022-09-21T03:00:38.288Z,990.78
2022-09-21T03:01:38.298Z,990.74
2022-09-21T03:02:38.230Z,990.75
2022-09-21T03:03:38.232Z,990.72
2022-09-21T03:04:38.259Z,990.72
2022-09-21T03:05:38.202Z,990.74
2022-09-21T03:06:38.196Z,990.81
2022-09-21T03:07:38.181Z,990.71
2022-09-21T03:08:38.201Z,990.71
2022-09-21T03:09:38.166Z,990.75
2022-09-21T03:10:38.161Z,990.79
2022-09-21T03:11:38.144Z,990.80
2022-09-21T03:12:38.133Z,990.74
2022-09-21T03:13:38.125Z,990.73
2022-09-21T03:14:38.124Z,990.76
2022-09-21T03:15:38.149Z,990.79
2022-09-21T03:16:38.097Z,990.80
2022-09-21T03:17:38.083Z,990.81
2022-09-21T03:18:38.079Z,990.84
2022-09-21T03:19:38.078Z,990.79
2022-09-21T03:20:38.054Z,990.85
2022-09-21T03:21:42.317Z,990.90
2022-09-21T03:22:40.032Z,990.89
2022-09-21T03:23:38.026Z,990.89
2022-09-21T03:24:38.021Z,990.90
2022-09-21T03:25:38.009Z,990.90
2022-09-21T03:26:37.996Z,990.85
2022-09-21T03:27:37.987Z,990.85
2022-09-21T03:28:37.976Z,990.87
2022-09-21T03:29:37.978Z,990.87
2022-09-21T03:30:37.955Z,990.95
2022-09-21T03:31:37.945Z,990.94
2022-09-21T03:32:37.934Z,990.97
2022-09-21T03:33:37.929Z,990.91
2022-09-21T03:34:37.924Z,990.97
2022-09-21T03:35:37.911Z,990.98
2022-09-21T03:36:37.958Z,990.93
2022-09-21T03:37:41.219Z,990.96
2022-09-21T03:38:38.875Z,990.97
2022-09-21T03:39:37.877Z,990.94
2022-09-21T03:40:37.873Z,990.93
2022-09-21T03:41:37.849Z,990.94
2022-09-21T03:42:37.838Z,990.94
2022-09-21T03:43:37.826Z,990.93
2022-09-21T03:44:37.826Z,990.94
2022-09-21T03:45:37.803Z,990.95
2022-09-21T03:46:37.835Z,990.96
2022-09-21T03:47:37.789Z,990.97
2022-09-21T03:48:37.777Z,990.97
2022-09-21T03:49:37.777Z,990.97
2022-09-21T03:50:37.755Z,991.02
2022-09-21T03:51:37.738Z,991.02
2022-09-21T03:52:37.792Z,991.03
2022-09-21T03:53:37.722Z,991.04
2022-09-21T03:54:37.719Z,991.00
2022-09-21T03:55:37.702Z,990.99
2022-09-21T03:56:37.692Z,991.01
2022-09-21T03:57:37.683Z,991.05
2022-09-21T03:58:37.670Z,991.04
2022-09-21T03:59:37.672Z,990.93
2022-09-21T04:00:37.654Z,990.98
2022-09-21T04:01:37.671Z,990.94
2022-09-21T04:02:37.701Z,991.00
2022-09-21T04:03:37.622Z,991.02
2022-09-21T04:04:37.629Z,990.99
2022-09-21T04:05:37.605Z,990.89
2022-09-21T04:06:37.595Z,991.01
2022-09-21T04:07:37.581Z,991.01
2022-09-21T04:08:37.574Z,991.00
2022-09-21T04:09:37.572Z,991.02
2022-09-21T04:10:37.552Z,991.00
2022-09-21T04:11:37.545Z,991.11
2022-09-21T04:12:37.532Z,991.09
2022-09-21T04:13:37.521Z,991.09
2022-09-21T04:14:37.524Z,991.05
2022-09-21T04:15:37.519Z,991.04
2022-09-21T04:16:37.488Z,991.04
2022-09-21T04:17:37.483Z,991.06
2022-09-21T04:18:37.469Z,991.10
2022-09-21T04:19:37.475Z,991.09
2022-09-21T04:20:37.455Z,991.03
2022-09-21T04:21:37.442Z,991.03
2022-09-21T04:22:41.261Z,990.97
2022-09-21T04:23:39.419Z,991.05
2022-09-21T04:24:37.425Z,991.06
2022-09-21T04:25:37.402Z,991.07
2022-09-21T04:26:37.393Z,991.10
2022-09-21T04:27:37.382Z,991.06
2022-09-21T04:28:37.370Z,991.12
2022-09-21T04:29:37.372Z,991.04
2022-09-21T04:30:38.062Z,991.05
2022-09-21T04:31:38.347Z,991.03
2022-09-21T04:32:37.337Z,991.08
2022-09-21T04:33:37.323Z,991.05
2022-09-21T04:34:37.327Z,991.02
2022-09-21T04:35:37.309Z,991.11
2022-09-21T04:36:37.298Z,991.04
2022-09-21T04:37:37.290Z,991.03
2022-09-21T04:38:37.279Z,991.02
2022-09-21T04:39:37.299Z,991.02
2022-09-21T04:40:37.293Z,991.09
2022-09-21T04:41:37.250Z,991.02
2022-09-21T04:42:37.245Z,991.05
2022-09-21T04:43:37.235Z,991.01
2022-09-21T04:44:37.228Z,991.02
2022-09-21T04:45:37.213Z,991.07
2022-09-21T04:46:37.271Z,991.03
2022-09-21T04:47:37.189Z,991.04
2022-09-21T04:48:37.172Z,991.01
2022-09-21T04:49:37.187Z,991.04
2022-09-21T04:50:37.157Z,991.04
2022-09-21T04:51:37.152Z,991.09
2022-09-21T04:52:37.136Z,991.07
2022-09-21T04:53:37.127Z,991.05
2022-09-21T04:54:37.128Z,991.07
2022-09-21T04:55:37.107Z,991.10
2022-09-21T04:56:37.097Z,991.15
2022-09-21T04:57:37.088Z,991.15
2022-09-21T04:58:37.081Z,991.13
2022-09-21T04:59:37.080Z,991.17
2022-09-21T05:00:37.059Z,991.16
2022-09-21T05:01:37.106Z,991.20
2022-09-21T05:02:37.036Z,991.19
2022-09-21T05:03:37.062Z,991.17
2022-09-21T05:04:37.030Z,991.22
2022-09-21T05:05:37.009Z,991.25
2022-09-21T05:06:36.997Z,991.23
2022-09-21T05:07:36.986Z,991.25
2022-09-21T05:08:36.970Z,991.28
2022-09-21T05:09:36.977Z,991.28
2022-09-21T05:10:36.956Z,991.30
2022-09-21T05:11:37.102Z,991.26
2022-09-21T05:12:40.857Z,991.33
2022-09-21T05:13:37.935Z,991.35
2022-09-21T05:14:36.929Z,991.31
2022-09-21T05:15:36.937Z,991.27
2022-09-21T05:16:36.900Z,991.33
2022-09-21T05:17:36.894Z,991.32
2022-09-21T05:18:36.879Z,991.27
2022-09-21T05:19:36.888Z,991.34
2022-09-21T05:20:36.867Z,991.30
2022-09-21T05:21:36.856Z,991.32
2022-09-21T05:22:36.842Z,991.36
2022-09-21T05:23:36.834Z,991.33
2022-09-21T05:24:36.838Z,991.35
2022-09-21T05:25:36.816Z,991.35
2022-09-21T05:26:36.807Z,991.41
2022-09-21T05:27:36.796Z,991.41
2022-09-21T05:28:40.039Z,991.41
2022-09-21T05:29:37.792Z,991.42
2022-09-21T05:30:36.795Z,991.43
2022-09-21T05:31:36.817Z,991.39
2022-09-21T05:32:36.750Z,991.43
2022-09-21T05:33:36.736Z,991.42
2022-09-21T05:34:37.024Z,991.47
2022-09-21T05:35:36.727Z,991.47
2022-09-21T05:36:36.712Z,991.51
2022-09-21T05:37:36.703Z,991.55
2022-09-21T05:38:36.692Z,991.56
2022-09-21T05:39:36.692Z,991.62
2022-09-21T05:40:36.723Z,991.49
2022-09-21T05:41:36.662Z,991.51
2022-09-21T05:42:36.652Z,991.58
2022-09-21T05:43:36.643Z,991.61
2022-09-21T05:44:36.646Z,991.60
2022-09-21T05:45:36.689Z,991.60
2022-09-21T05:46:36.611Z,991.62
2022-09-21T05:47:36.603Z,991.66
2022-09-21T05:48:36.594Z,991.62
2022-09-21T05:49:36.596Z,991.67
2022-09-21T05:50:36.570Z,991.62
2022-09-21T05:51:36.562Z,991.66
2022-09-21T05:52:36.555Z,991.62
2022-09-21T05:53:36.575Z,991.58
2022-09-21T05:54:36.545Z,991.67
2022-09-21T05:55:36.530Z,991.56
2022-09-21T05:56:36.515Z,991.60
2022-09-21T05:57:36.510Z,991.62
2022-09-21T05:58:36.500Z,991.62
2022-09-21T05:59:36.499Z,991.64
2022-09-21T06:00:36.480Z,991.63
2022-09-21T06:01:36.504Z,991.64
2022-09-21T06:02:36.581Z,991.66
2022-09-21T06:03:36.452Z,991.67
2022-09-21T06:04:36.456Z,991.69
2022-09-21T06:05:36.430Z,991.62
2022-09-21T06:06:36.433Z,991.63
2022-09-21T06:07:36.413Z,991.63
2022-09-21T06:08:36.416Z,991.64
2022-09-21T06:09:39.974Z,991.68
2022-09-21T06:10:38.390Z,991.66
2022-09-21T06:11:36.375Z,991.66
2022-09-21T06:12:36.372Z,991.72
2022-09-21T06:13:36.356Z,991.70
2022-09-21T06:14:36.363Z,991.74
2022-09-21T06:15:36.333Z,991.76
2022-09-21T06:16:36.393Z,991.78
2022-09-21T06:17:36.319Z,991.80
2022-09-21T06:18:36.312Z,991.78
2022-09-21T06:19:36.308Z,991.74
2022-09-21T06:20:36.294Z,991.73
2022-09-21T06:21:36.281Z,991.75
2022-09-21T06:22:36.273Z,991.73
2022-09-21T06:23:36.264Z,991.72
2022-09-21T06:24:42.757Z,991.80
2022-09-21T06:25:42.760Z,991.79
2022-09-21T06:26:42.747Z,991.75
2022-09-21T06:27:42.744Z,991.83
2022-09-21T06:28:42.728Z,991.78
2022-09-21T06:29:42.735Z,991.81
2022-09-21T06:30:42.773Z,991.76
2022-09-21T06:31:42.711Z,991.76
2022-09-21T06:32:42.693Z,991.77
2022-09-21T06:33:46.163Z,991.79
2022-09-21T06:34:43.687Z,991.78
2022-09-21T06:35:42.669Z,991.78
2022-09-21T06:36:42.655Z,991.81
2022-09-21T06:37:42.651Z,991.81
2022-09-21T06:38:42.636Z,991.80
2022-09-21T06:39:42.647Z,991.82
2022-09-21T06:40:42.631Z,991.79
2022-09-21T06:41:42.610Z,991.85
2022-09-21T06:42:42.605Z,991.79
2022-09-21T06:43:42.590Z,991.76
2022-09-21T06:44:42.591Z,991.78
2022-09-21T06:45:42.693Z,991.79
2022-09-21T06:46:42.633Z,991.76
2022-09-21T06:47:42.560Z,991.75
2022-09-21T06:48:42.542Z,991.71
2022-09-21T06:49:42.828Z,991.68
2022-09-21T06:50:42.535Z,991.78
2022-09-21T06:51:42.514Z,991.75
2022-09-21T06:52:42.502Z,991.72
2022-09-21T06:53:42.499Z,991.71
2022-09-21T06:54:42.494Z,991.75
2022-09-21T06:55:42.491Z,991.78
2022-09-21T06:56:43.579Z,991.77
2022-09-21T06:57:43.579Z,991.77
2022-09-21T06:58:43.558Z,991.80
2022-09-21T06:59:43.549Z,991.77
2022-09-21T07:00:43.599Z,991.84
2022-09-21T07:01:43.586Z,991.86
2022-09-21T07:02:43.520Z,991.84
2022-09-21T07:03:43.516Z,991.82
2022-09-21T07:04:43.506Z,991.81
2022-09-21T07:05:43.522Z,991.79
2022-09-21T07:06:43.490Z,991.80
2022-09-21T07:07:43.481Z,991.81
2022-09-21T07:10:45.467Z,991.85
2022-09-21T07:11:43.436Z,991.88
2022-09-21T07:12:43.431Z,991.92
2022-09-21T07:13:43.424Z,991.89
2022-09-21T07:14:43.414Z,991.86
2022-09-21T07:15:43.415Z,991.93
2022-09-21T07:16:43.444Z,991.90
2022-09-21T07:17:43.821Z,991.95
2022-09-21T07:18:44.073Z,991.93
2022-09-21T07:19:44.368Z,991.89
2022-09-21T07:30:05.054Z,991.97
2022-09-21T07:30:43.733Z,991.94
2022-09-21T07:31:43.766Z,992.03
2022-09-21T07:32:43.716Z,991.98
2022-09-21T07:33:43.700Z,991.92
2022-09-21T07:34:43.757Z,991.91
2022-09-21T07:35:43.693Z,991.98
2022-09-21T07:36:43.677Z,991.96
2022-09-21T07:37:43.669Z,991.95
2022-09-21T07:38:43.660Z,991.97
2022-09-21T07:39:43.670Z,991.96
2022-09-21T07:40:43.677Z,991.92
2022-09-21T07:41:43.630Z,991.94
2022-09-21T07:42:43.624Z,991.95
2022-09-21T07:43:43.609Z,991.93
2022-09-21T07:44:44.713Z,991.90
2022-09-21T07:45:44.768Z,991.87
2022-09-21T07:46:48.119Z,991.93
2022-09-21T07:47:45.690Z,991.95
2022-09-21T07:48:44.696Z,991.96
2022-09-21T07:49:44.667Z,991.91
2022-09-21T07:50:44.714Z,991.88
2022-09-21T07:51:44.650Z,991.95
2022-09-21T07:52:44.641Z,991.92
2022-09-21T07:53:44.630Z,991.95
2022-09-21T07:54:44.641Z,991.97
2022-09-21T07:55:44.620Z,991.90
2022-09-21T07:56:44.597Z,991.94
2022-09-21T07:57:44.586Z,991.92
2022-09-21T07:58:44.579Z,991.91
2022-09-21T07:59:44.568Z,991.95
2022-09-21T08:00:44.590Z,992.00
2022-09-21T08:01:44.661Z,992.01
2022-09-21T08:02:47.666Z,991.94
2022-09-21T08:03:45.524Z,992.02
2022-09-21T08:04:44.513Z,991.99
2022-09-21T08:05:44.523Z,991.95
2022-09-21T08:06:44.512Z,991.96
2022-09-21T08:07:44.483Z,992.00
2022-09-21T08:08:44.477Z,992.01
2022-09-21T08:09:44.464Z,992.01
2022-09-21T08:10:44.465Z,992.03
2022-09-21T08:11:44.439Z,992.00
2022-09-21T08:12:44.434Z,992.00
2022-09-21T08:13:44.423Z,992.01
2022-09-21T08:14:44.418Z,992.05
2022-09-21T08:15:49.920Z,992.02
2022-09-21T08:16:46.429Z,991.98
2022-09-21T08:17:44.398Z,992.00
2022-09-21T08:18:44.373Z,992.02
2022-09-21T08:19:44.363Z,992.05
2022-09-21T08:20:44.366Z,992.02
2022-09-21T08:21:44.341Z,992.03
2022-09-21T08:22:44.330Z,992.04
2022-09-21T08:23:44.322Z,992.04
2022-09-21T08:24:44.315Z,992.05
2022-09-21T08:25:44.312Z,992.06
2022-09-21T08:26:44.282Z,992.01
2022-09-21T08:27:45.281Z,992.00
2022-09-21T08:28:44.271Z,992.03
2022-09-21T08:29:44.262Z,992.03
2022-09-21T08:30:44.265Z,991.99
2022-09-21T08:31:44.299Z,992.05
2022-09-21T08:32:51.424Z,991.99
2022-09-21T08:33:46.224Z,992.09
2022-09-21T08:34:44.209Z,992.09
2022-09-21T08:35:44.216Z,992.04
2022-09-21T08:36:44.185Z,992.09
2022-09-21T08:37:44.185Z,992.09
2022-09-21T08:38:44.164Z,992.08
2022-09-21T08:39:44.159Z,992.13
2022-09-21T08:40:44.199Z,992.08
2022-09-21T08:41:44.142Z,992.07
2022-09-21T08:42:47.567Z,992.07
2022-09-21T08:43:46.116Z,992.07
2022-09-21T08:44:44.154Z,992.14
2022-09-21T08:45:44.109Z,992.10
2022-09-21T08:46:44.166Z,992.05
2022-09-21T08:47:44.079Z,992.15
2022-09-21T08:48:44.067Z,992.13
2022-09-21T08:49:44.062Z,992.10
2022-09-21T08:50:44.058Z,992.07
2022-09-21T08:51:44.038Z,992.08
2022-09-21T08:52:46.590Z,992.08
2022-09-21T08:53:45.010Z,992.05
2022-09-21T08:54:44.039Z,992.08
2022-09-21T08:55:44.011Z,992.10
2022-09-21T08:57:03.780Z,992.11
2022-09-21T08:57:45.981Z,992.07
2022-09-21T08:58:43.964Z,992.07
2022-09-21T08:59:43.956Z,992.05
2022-09-21T09:00:43.991Z,992.07
2022-09-21T09:01:43.957Z,992.12
2022-09-21T09:02:43.917Z,992.12
2022-09-21T09:03:43.914Z,992.12
2022-09-21T09:04:43.901Z,992.08
2022-09-21T09:05:43.901Z,992.07
2022-09-21T09:06:43.909Z,992.07
2022-09-21T09:07:44.791Z,992.13
2022-09-21T09:08:43.857Z,992.07
2022-09-21T09:09:43.853Z,992.10
2022-09-21T09:10:43.852Z,992.12
2022-09-21T09:11:43.827Z,992.09
2022-09-21T09:12:43.820Z,992.13
2022-09-21T09:13:43.806Z,992.13
2022-09-21T09:14:43.795Z,992.09
2022-09-21T09:15:43.832Z,992.09
2022-09-21T09:16:43.780Z,992.10
2022-09-21T09:17:43.772Z,992.11
2022-09-21T09:18:43.925Z,992.12
2022-09-21T09:19:43.748Z,992.16
2022-09-21T09:20:43.750Z,992.10
2022-09-21T09:21:43.730Z,992.05
2022-09-21T09:22:43.720Z,992.09
2022-09-21T09:23:43.707Z,992.02
2022-09-21T09:24:43.704Z,992.06
2022-09-21T09:25:43.697Z,992.05
2022-09-21T09:26:43.673Z,992.05
2022-09-21T09:27:44.666Z,992.04
2022-09-21T09:28:43.656Z,992.09
2022-09-21T09:29:43.649Z,992.14
2022-09-21T09:30:43.646Z,992.16
2022-09-21T09:31:43.710Z,992.14
2022-09-21T09:32:43.602Z,992.08
2022-09-21T09:33:44.603Z,992.10
2022-09-21T09:34:43.593Z,992.08
2022-09-21T09:35:43.599Z,992.14
2022-09-21T09:36:57.982Z,992.03
2022-09-21T09:37:45.567Z,992.14
2022-09-21T09:38:43.558Z,992.08
2022-09-21T09:39:43.539Z,992.14
2022-09-21T09:40:43.604Z,992.09
2022-09-21T09:41:43.538Z,992.10
2022-09-21T09:42:43.507Z,992.10
2022-09-21T09:43:43.496Z,992.15
2022-09-21T09:44:43.488Z,992.12
2022-09-21T09:45:43.495Z,992.07
2022-09-21T09:46:43.520Z,992.02
2022-09-21T09:47:43.465Z,992.03
2022-09-21T09:48:43.450Z,992.08
2022-09-21T09:49:43.442Z,992.05
2022-09-21T09:50:43.441Z,992.02
2022-09-21T09:51:43.421Z,992.08
2022-09-21T09:52:43.410Z,992.08
2022-09-21T09:53:43.411Z,992.05
2022-09-21T09:54:43.388Z,992.04
2022-09-21T09:55:43.406Z,991.99
2022-09-21T09:56:43.373Z,992.05
2022-09-21T09:57:43.365Z,992.01
2022-09-21T09:58:43.485Z,991.99
2022-09-21T09:59:43.345Z,992.01
2022-09-21T10:00:43.367Z,991.99
2022-09-21T10:01:43.431Z,991.93
2022-09-21T10:02:43.312Z,991.93
2022-09-21T10:03:43.301Z,991.97
2022-09-21T10:04:43.330Z,991.93
2022-09-21T10:05:43.295Z,991.91
2022-09-21T10:06:46.438Z,991.96
2022-09-21T10:07:44.262Z,991.94
2022-09-21T10:08:43.252Z,991.93
2022-09-21T10:09:43.242Z,991.88
2022-09-21T10:10:43.259Z,991.92
2022-09-21T10:11:43.219Z,991.88
2022-09-21T10:12:43.211Z,991.94
2022-09-21T10:13:43.198Z,991.93
2022-09-21T10:14:43.190Z,991.91
2022-09-21T10:15:43.218Z,991.94
2022-09-21T10:16:43.167Z,991.93
2022-09-21T10:17:43.156Z,991.95
2022-09-21T10:18:43.148Z,991.94
2022-09-21T10:19:43.138Z,991.95
2022-09-21T10:20:43.132Z,991.93
2022-09-21T10:21:43.114Z,991.94
2022-09-21T10:22:43.104Z,991.89
2022-09-21T10:23:43.094Z,991.90
2022-09-21T10:24:43.083Z,991.86
2022-09-21T10:25:43.083Z,991.85
2022-09-21T10:26:43.064Z,991.76
2022-09-21T10:27:43.052Z,991.84
2022-09-21T10:28:43.044Z,991.84
2022-09-21T10:29:43.034Z,991.79
2022-09-21T10:30:43.027Z,991.82
2022-09-21T10:31:43.011Z,991.79
2022-09-21T10:32:42.999Z,991.74
2022-09-21T10:33:42.992Z,991.73
2022-09-21T10:34:42.979Z,991.72
2022-09-21T10:35:42.981Z,991.73
2022-09-21T10:36:42.959Z,991.72
2022-09-21T10:37:42.951Z,991.70
2022-09-21T10:38:42.939Z,991.72
2022-09-21T10:39:42.922Z,991.66
2022-09-21T10:40:42.995Z,991.70
2022-09-21T10:41:42.909Z,991.68
2022-09-21T10:42:42.901Z,991.67
2022-09-21T10:43:43.883Z,991.65
2022-09-21T10:44:43.879Z,991.59
2022-09-21T10:45:42.882Z,991.63
2022-09-21T10:46:43.022Z,991.54
2022-09-21T10:47:42.851Z,991.55
2022-09-21T10:48:42.835Z,991.54
2022-09-21T10:49:42.872Z,991.51
2022-09-21T10:50:42.854Z,991.51
2022-09-21T10:51:42.812Z,991.54
2022-09-21T10:52:44.976Z,991.49
2022-09-21T10:53:42.785Z,991.56
2022-09-21T10:54:42.774Z,991.58
2022-09-21T10:55:52.720Z,991.54
2022-09-21T10:56:44.761Z,991.52
2022-09-21T10:57:42.745Z,991.56
2022-09-21T10:58:42.739Z,991.53
2022-09-21T10:59:42.739Z,991.51
2022-09-21T11:00:42.713Z,991.48
2022-09-21T11:01:42.742Z,991.51
2022-09-21T11:02:42.738Z,991.55
2022-09-21T11:03:42.683Z,991.49
2022-09-21T11:04:42.700Z,991.47
2022-09-21T11:05:42.665Z,991.43
2022-09-21T11:06:42.661Z,991.51
2022-09-21T11:07:42.646Z,991.42
2022-09-21T11:08:42.638Z,991.51
2022-09-21T11:09:42.624Z,991.48
2022-09-21T11:10:42.631Z,991.50
2022-09-21T11:11:42.605Z,991.47
2022-09-21T11:12:42.654Z,991.43
2022-09-21T11:13:42.589Z,991.44
2022-09-21T11:14:42.578Z,991.50
2022-09-21T11:15:42.615Z,991.51
2022-09-21T11:16:42.551Z,991.52
2022-09-21T11:17:42.545Z,991.44
2022-09-21T11:18:42.532Z,991.51
2022-09-21T11:19:42.527Z,991.48
2022-09-21T11:20:42.546Z,991.47
2022-09-21T11:21:42.503Z,991.52
2022-09-21T11:22:42.499Z,991.52
2022-09-21T11:23:42.488Z,991.54
2022-09-21T11:24:42.483Z,991.49
2022-09-21T11:25:42.488Z,991.47
2022-09-21T11:27:42.448Z,991.50
2022-09-21T11:28:42.441Z,991.49
2022-09-21T11:29:42.434Z,991.53
2022-09-21T11:30:42.436Z,991.47
2022-09-21T11:31:42.406Z,991.52
2022-09-21T11:32:42.400Z,991.45
2022-09-21T11:33:42.391Z,991.42
2022-09-21T11:34:42.380Z,991.49
2022-09-21T11:35:42.383Z,991.49
2022-09-21T11:36:42.356Z,991.41
2022-09-21T11:37:42.355Z,991.44
2022-09-21T11:38:43.363Z,991.45
2022-09-21T11:39:43.332Z,991.43
2022-09-21T11:40:42.362Z,991.38
2022-09-21T11:41:42.311Z,991.39
2022-09-21T11:42:42.305Z,991.48
2022-09-21T11:43:42.289Z,991.43
2022-09-21T11:44:42.283Z,991.46
2022-09-21T11:45:42.443Z,991.49
2022-09-21T11:46:42.263Z,991.34
2022-09-21T11:47:42.251Z,991.38
2022-09-21T11:48:42.239Z,991.42
2022-09-21T11:49:42.244Z,991.38
2022-09-21T11:50:42.332Z,991.41
2022-09-21T11:51:42.213Z,991.39
2022-09-21T11:52:42.201Z,991.42
2022-09-21T11:53:42.196Z,991.39
2022-09-21T11:54:42.180Z,991.29
2022-09-21T11:55:42.185Z,991.37
2022-09-21T11:56:42.160Z,991.31
2022-09-21T11:57:42.149Z,991.38
2022-09-21T11:58:42.141Z,991.37
2022-09-21T11:59:42.131Z,991.34
2022-09-21T12:00:42.130Z,991.30
2022-09-21T12:01:42.118Z,991.32
2022-09-21T12:02:42.321Z,991.28
2022-09-21T12:03:42.089Z,991.28
2022-09-21T12:04:42.081Z,991.26
2022-09-21T12:05:42.089Z,991.26
2022-09-21T12:06:42.077Z,991.29
2022-09-21T12:07:42.047Z,991.29
2022-09-21T12:08:42.038Z,991.24
2022-09-21T12:09:42.029Z,991.21
2022-09-21T12:10:42.030Z,991.22
2022-09-21T12:11:42.011Z,991.22
2022-09-21T12:12:42.001Z,991.20
2022-09-21T12:13:41.993Z,991.25
2022-09-21T12:14:41.987Z,991.20
2022-09-21T12:15:41.995Z,991.18
2022-09-21T12:16:42.018Z,991.16
2022-09-21T12:17:41.951Z,991.17
2022-09-21T12:18:45.303Z,991.14
2022-09-21T12:19:41.947Z,991.12
2022-09-21T12:20:41.935Z,991.14
2022-09-21T12:21:41.918Z,991.10
2022-09-21T12:22:41.902Z,991.18
2022-09-21T12:23:41.906Z,991.16
2022-09-21T12:24:41.881Z,991.16
2022-09-21T12:25:41.887Z,991.17
2022-09-21T12:26:41.864Z,991.17
2022-09-21T12:27:41.856Z,991.14
2022-09-21T12:28:41.841Z,991.18
2022-09-21T12:29:41.830Z,991.18
2022-09-21T12:30:41.921Z,991.16
2022-09-21T12:31:41.812Z,991.20
2022-09-21T12:32:41.811Z,991.12
2022-09-21T12:33:41.794Z,991.13
2022-09-21T12:34:41.784Z,991.12
2022-09-21T12:35:41.797Z,991.08
2022-09-21T12:36:42.073Z,991.08
2022-09-21T12:37:42.538Z,991.00
2022-09-21T12:38:41.817Z,991.06
2022-09-21T12:39:41.748Z,991.11
2022-09-21T12:40:41.803Z,991.11